Strona główna
METAR-TAF:

METAR-TAF

Lotnisko :

Sullivan County International Airport

Monticello, Nowy Jork, Stany Zjednoczone

Szerokość geograficzna: 41-42N, Długość geograficzna: 074-48W, wysokość: 428 m

Aktualna obserwacja pogody

Raport powstał 14 minut temu, godzina 10:56 UTC
Wiatr 5 kt od wschód
Temperatura 17°C
Wilgotność 94%
Ciśnienie 1016 hPa
Widzialność: 16.1 km
Przerywane chmury na wysokości 1100 ft

METAR: KMSV 191056Z AUTO 08005KT 10SM BKN011 17/16 A3000 RMK AO2 SLP152 T01720156

czas: 07:10 (11:10 UTC)


TAF: brakujący

Obserwacja i prognoza pogody dla ponad 4000 lotnisk (raport METAR i TAF).

Dostępne stacje oznaczono żółtymi i czerwonymi punktami na mapie.

Najedź kursorem aby zobaczyć nazwę stacji.

Kliknij aby zobaczyć obserwacje i prognozy pogody.

Aby zmienić mapę: kliknij na zielony przycisk z czarnym krzyżykiem, aby powiększyć; na zielony przycisk z myślnikiem, aby pomniejszyć; na zielone strzałki, aby przejść do map sąsiednich.


METAR-TAF: